Time;durP1;ratioP1;P1;durP2;ratioP2;P2;SDS_P1;SDS_P2;PMS_P1;PMS_P2;Temp;Humidity;BMP_temperature;BMP_pressure;BME280_temperature;BME280_humidity;BME280_pressure;Samples;Min_cycle;Max_cycle;Signal;HPM_P1;HPM_P2
2021/10/30 00:00:12;;;;;;;;;;;11.00;99.90;;;;;;5036112;28;20262;-78
2021/10/30 00:02:38;;;;;;;;;;;11.00;99.90;;;;;;5036842;28;19974;-78
2021/10/30 00:05:04;;;;;;;;;;;10.90;99.90;;;;;;5034470;28;19974;-78
2021/10/30 00:07:30;;;;;;;;;;;10.90;99.90;;;;;;5040948;28;19924;-78
2021/10/30 00:09:55;;;;;;;;;;;10.80;99.90;;;;;;5024984;28;19920;-78
2021/10/30 00:12:21;;;;;;;;;;;10.80;99.90;;;;;;5041740;28;19924;-78
2021/10/30 00:14:48;;;;;;;;;;;10.80;99.90;;;;;;5045359;28;20039;-79
2021/10/30 00:17:14;;;;;;;;;;;10.70;99.90;;;;;;5024214;28;19986;-78
2021/10/30 00:19:39;;;;;;;;;;;10.70;99.90;;;;;;5027264;28;19994;-78
2021/10/30 00:22:05;;;;;;;;;;;10.70;99.90;;;;;;5018787;28;20819;-78
2021/10/30 00:24:34;;;;;;;;;;;10.70;99.90;;;;;;5015314;28;19924;-78
2021/10/30 00:27:00;;;;;;;;;;;10.70;99.90;;;;;;5030142;28;19925;-78
2021/10/30 00:29:25;;;;;;;;;;;10.60;99.90;;;;;;5025403;28;19920;-78
2021/10/30 00:31:51;;;;;;;;;;;10.60;99.90;;;;;;5035146;28;20609;-78
2021/10/30 00:34:16;;;;;;;;;;;10.50;99.90;;;;;;5035574;28;20015;-78
2021/10/30 00:36:42;;;;;;;;;;;10.50;99.90;;;;;;5017137;28;20449;-78
2021/10/30 00:39:07;;;;;;;;;;;10.50;99.90;;;;;;5034416;28;19921;-78
2021/10/30 00:41:33;;;;;;;;;;;10.40;99.90;;;;;;5026702;28;20249;-78
2021/10/30 00:44:08;;;;;;;;;;;10.40;99.90;;;;;;5029998;28;19927;-78
2021/10/30 00:46:34;;;;;;;;;;;10.30;99.90;;;;;;5032222;28;19964;-78
2021/10/30 00:49:00;;;;;;;;;;;10.30;99.90;;;;;;5033879;28;19990;-78
2021/10/30 00:51:26;;;;;;;;;;;10.30;99.90;;;;;;5051840;28;19931;-78
2021/10/30 00:53:51;;;;;;;;;;;10.20;99.90;;;;;;5033223;28;19917;-78
2021/10/30 00:56:17;;;;;;;;;;;10.10;99.90;;;;;;5033150;28;19916;-78
2021/10/30 00:58:45;;;;;;;;;;;10.10;99.90;;;;;;5032945;28;20059;-78
2021/10/30 01:01:10;;;;;;;;;;;10.00;99.90;;;;;;5034230;28;19921;-78
2021/10/30 01:03:36;;;;;;;;;;;10.00;99.90;;;;;;5033601;28;19925;-78
2021/10/30 01:06:02;;;;;;;;;;;9.90;99.90;;;;;;5033523;28;19955;-79
2021/10/30 01:08:27;;;;;;;;;;;9.90;99.90;;;;;;5033889;28;20395;-79
2021/10/30 01:10:53;;;;;;;;;;;9.80;99.90;;;;;;5032775;28;19966;-78
2021/10/30 01:13:19;;;;;;;;;;;9.80;99.90;;;;;;5034372;28;20015;-79
2021/10/30 01:15:44;;;;;;;;;;;9.70;99.90;;;;;;5033589;28;19927;-79
2021/10/30 01:18:09;;;;;;;;;;;9.70;99.90;;;;;;5018586;28;19917;-79
2021/10/30 01:20:35;;;;;;;;;;;9.70;99.90;;;;;;5034143;28;20369;-79
2021/10/30 01:23:01;;;;;;;;;;;9.60;99.90;;;;;;5033799;28;19925;-78
2021/10/30 01:25:27;;;;;;;;;;;9.60;99.90;;;;;;5033332;28;20266;-78
2021/10/30 01:27:53;;;;;;;;;;;9.60;99.90;;;;;;5049230;28;19932;-79
2021/10/30 01:30:20;;;;;;;;;;;9.60;99.90;;;;;;5033435;28;19943;-79
2021/10/30 01:32:52;;;;;;;;;;;9.50;99.90;;;;;;5016556;28;19952;-78
2021/10/30 01:35:23;;;;;;;;;;;9.50;99.90;;;;;;5029335;28;19924;-78
2021/10/30 01:37:49;;;;;;;;;;;9.60;99.90;;;;;;5032999;28;19939;-78
2021/10/30 01:40:15;;;;;;;;;;;9.50;99.90;;;;;;5029212;28;20443;-79
2021/10/30 01:42:40;;;;;;;;;;;9.50;99.90;;;;;;5014906;28;19917;-79
2021/10/30 01:45:06;;;;;;;;;;;9.40;99.90;;;;;;5032468;28;19986;-79
2021/10/30 01:47:31;;;;;;;;;;;9.40;99.90;;;;;;5033651;28;20015;-78
2021/10/30 01:49:57;;;;;;;;;;;9.40;99.90;;;;;;5033931;28;19917;-78
2021/10/30 01:52:22;;;;;;;;;;;9.40;99.90;;;;;;5027841;28;19924;-79
2021/10/30 01:54:48;;;;;;;;;;;9.40;99.90;;;;;;5052706;28;19917;-79
2021/10/30 01:57:13;;;;;;;;;;;9.30;99.90;;;;;;5033639;28;20306;-79
2021/10/30 01:59:39;;;;;;;;;;;9.30;99.90;;;;;;5030123;28;19926;-79
2021/10/30 02:02:04;;;;;;;;;;;9.30;99.90;;;;;;5033059;28;19924;-79
2021/10/30 02:04:30;;;;;;;;;;;9.20;99.90;;;;;;5033578;28;19920;-79
2021/10/30 02:06:55;;;;;;;;;;;9.20;99.90;;;;;;5033056;28;19931;-79
2021/10/30 02:09:20;;;;;;;;;;;9.20;99.90;;;;;;5048262;28;20437;-79
2021/10/30 02:11:46;;;;;;;;;;;9.10;99.90;;;;;;5015110;28;19921;-79
2021/10/30 02:14:11;;;;;;;;;;;9.10;99.90;;;;;;5031443;28;20026;-79
2021/10/30 02:16:37;;;;;;;;;;;9.10;99.90;;;;;;5033848;28;20313;-79
2021/10/30 02:19:02;;;;;;;;;;;9.10;99.90;;;;;;5033823;28;20004;-79
2021/10/30 02:21:28;;;;;;;;;;;9.10;99.90;;;;;;5050716;28;19923;-79
2021/10/30 02:23:53;;;;;;;;;;;9.10;99.90;;;;;;5048954;28;19928;-79
2021/10/30 02:26:19;;;;;;;;;;;9.10;99.90;;;;;;5045511;28;19921;-79
2021/10/30 02:28:44;;;;;;;;;;;9.00;99.90;;;;;;5036187;28;20726;-79
2021/10/30 02:31:10;;;;;;;;;;;9.00;99.90;;;;;;5036132;28;19917;-79
2021/10/30 02:33:35;;;;;;;;;;;9.00;99.90;;;;;;5036269;28;19920;-80
2021/10/30 02:36:01;;;;;;;;;;;8.90;99.90;;;;;;5037591;28;19966;-79
2021/10/30 02:38:26;;;;;;;;;;;8.90;99.90;;;;;;5036353;28;19921;-79
2021/10/30 02:40:52;;;;;;;;;;;8.90;99.90;;;;;;5035236;28;19921;-79
2021/10/30 02:43:17;;;;;;;;;;;8.90;99.90;;;;;;5020368;28;19917;-79
2021/10/30 02:45:43;;;;;;;;;;;8.90;99.90;;;;;;5037749;28;19917;-79
2021/10/30 02:48:08;;;;;;;;;;;8.90;99.90;;;;;;5036980;28;20309;-79
2021/10/30 02:50:34;;;;;;;;;;;8.80;99.90;;;;;;5017680;28;20012;-79
2021/10/30 02:52:59;;;;;;;;;;;8.80;99.90;;;;;;5028987;28;19979;-79
2021/10/30 02:55:25;;;;;;;;;;;8.80;99.90;;;;;;5037709;28;20337;-79
2021/10/30 02:57:51;;;;;;;;;;;8.80;99.90;;;;;;5054444;28;19925;-80
2021/10/30 03:00:17;;;;;;;;;;;8.80;99.90;;;;;;5032716;28;19921;-79
2021/10/30 03:02:43;;;;;;;;;;;8.70;99.90;;;;;;5019320;28;19917;-79
2021/10/30 03:05:09;;;;;;;;;;;8.70;99.90;;;;;;5019303;28;19966;-79
2021/10/30 03:07:35;;;;;;;;;;;8.80;99.90;;;;;;5036807;28;19921;-79
2021/10/30 03:10:00;;;;;;;;;;;8.80;99.90;;;;;;5035846;28;19921;-79
2021/10/30 03:12:26;;;;;;;;;;;8.80;99.90;;;;;;5036419;28;19924;-79
2021/10/30 03:14:51;;;;;;;;;;;8.90;99.90;;;;;;5036841;28;19917;-79
2021/10/30 03:17:17;;;;;;;;;;;8.90;99.90;;;;;;5037388;28;19920;-79
2021/10/30 03:19:42;;;;;;;;;;;8.90;99.90;;;;;;5035829;28;19931;-79
2021/10/30 03:22:08;;;;;;;;;;;8.90;99.90;;;;;;5019536;28;19998;-79
2021/10/30 03:24:35;;;;;;;;;;;9.00;99.90;;;;;;5036083;28;19976;-79
2021/10/30 03:27:00;;;;;;;;;;;9.00;99.90;;;;;;5036313;28;20340;-79
2021/10/30 03:29:26;;;;;;;;;;;9.00;99.90;;;;;;5032461;28;20007;-79
2021/10/30 03:31:51;;;;;;;;;;;9.00;99.90;;;;;;5035344;28;19928;-79
2021/10/30 03:34:17;;;;;;;;;;;9.00;99.90;;;;;;5035590;28;19948;-79
2021/10/30 03:36:42;;;;;;;;;;;9.00;99.90;;;;;;5035146;28;20433;-79
2021/10/30 03:39:07;;;;;;;;;;;9.10;99.90;;;;;;5035280;28;19960;-79
2021/10/30 03:41:33;;;;;;;;;;;9.10;99.90;;;;;;5018123;28;19917;-79
2021/10/30 03:43:59;;;;;;;;;;;9.10;99.90;;;;;;5036142;28;19923;-79
2021/10/30 03:46:24;;;;;;;;;;;9.10;99.90;;;;;;5034930;28;19943;-79
2021/10/30 03:48:49;;;;;;;;;;;9.10;99.90;;;;;;5028365;28;19927;-79
2021/10/30 03:51:15;;;;;;;;;;;9.10;99.90;;;;;;5031390;28;19924;-79
2021/10/30 03:53:40;;;;;;;;;;;9.10;99.90;;;;;;5019791;28;19938;-80
2021/10/30 03:56:06;;;;;;;;;;;9.10;99.90;;;;;;5034998;28;19959;-79
2021/10/30 03:58:32;;;;;;;;;;;9.10;99.90;;;;;;5021142;28;20023;-79
2021/10/30 04:00:57;;;;;;;;;;;9.10;99.90;;;;;;5019261;28;19917;-79
2021/10/30 04:03:23;;;;;;;;;;;9.10;99.90;;;;;;5019687;28;19924;-79
2021/10/30 04:05:48;;;;;;;;;;;9.10;99.90;;;;;;5034423;28;20078;-79
2021/10/30 04:08:18;;;;;;;;;;;9.10;99.90;;;;;;5023324;28;19929;-79
2021/10/30 04:10:44;;;;;;;;;;;9.10;99.90;;;;;;5006930;28;19925;-79
2021/10/30 04:13:10;;;;;;;;;;;9.20;99.90;;;;;;5032914;28;20359;-79
2021/10/30 04:15:35;;;;;;;;;;;9.10;99.90;;;;;;5050613;28;19924;-79
2021/10/30 04:18:01;;;;;;;;;;;9.10;99.90;;;;;;5036295;28;20372;-79
2021/10/30 04:20:26;;;;;;;;;;;9.20;99.90;;;;;;5036311;28;19921;-80
2021/10/30 04:22:52;;;;;;;;;;;9.20;99.90;;;;;;5036135;28;20355;-79
2021/10/30 04:25:17;;;;;;;;;;;9.20;99.90;;;;;;5019561;28;19925;-79
2021/10/30 04:27:43;;;;;;;;;;;9.20;99.90;;;;;;5023990;28;20000;-79
2021/10/30 04:30:08;;;;;;;;;;;9.20;99.90;;;;;;5035317;28;19923;-79
2021/10/30 04:32:34;;;;;;;;;;;9.20;99.90;;;;;;5035531;28;20273;-79
2021/10/30 04:35:06;;;;;;;;;;;9.20;99.90;;;;;;5032867;28;19916;-79
2021/10/30 04:37:31;;;;;;;;;;;9.20;99.90;;;;;;5031267;28;19916;-79
2021/10/30 04:39:56;;;;;;;;;;;9.30;99.90;;;;;;5034772;28;19959;-79
2021/10/30 04:42:22;;;;;;;;;;;9.40;99.90;;;;;;5035311;28;19920;-79
2021/10/30 04:44:48;;;;;;;;;;;9.50;99.90;;;;;;5035506;28;19920;-79
2021/10/30 04:47:15;;;;;;;;;;;9.70;99.90;;;;;;5035393;28;19977;-78
2021/10/30 04:49:40;;;;;;;;;;;9.70;99.90;;;;;;5028566;28;19917;-79
2021/10/30 04:52:06;;;;;;;;;;;9.70;99.90;;;;;;5022856;28;19917;-79
2021/10/30 04:54:32;;;;;;;;;;;9.80;99.90;;;;;;5019171;28;19928;-79
2021/10/30 04:56:57;;;;;;;;;;;9.80;99.90;;;;;;5031228;28;20373;-78
2021/10/30 04:59:23;;;;;;;;;;;9.80;99.90;;;;;;5034244;28;19917;-79
2021/10/30 05:01:48;;;;;;;;;;;9.80;99.90;;;;;;5020444;28;20633;-78
2021/10/30 05:04:14;;;;;;;;;;;9.80;99.90;;;;;;5017505;28;20004;-79
2021/10/30 05:06:39;;;;;;;;;;;9.80;99.90;;;;;;5018949;28;19921;-79
2021/10/30 05:09:05;;;;;;;;;;;9.80;99.90;;;;;;5052076;28;20290;-79
2021/10/30 05:11:30;;;;;;;;;;;9.80;99.90;;;;;;5034054;28;19963;-78
2021/10/30 05:13:56;;;;;;;;;;;9.80;99.90;;;;;;5031621;28;20321;-79
2021/10/30 05:16:21;;;;;;;;;;;9.80;99.90;;;;;;5036148;28;19955;-79
2021/10/30 05:18:47;;;;;;;;;;;9.80;99.90;;;;;;5035265;28;19925;-79
2021/10/30 05:21:12;;;;;;;;;;;9.80;99.90;;;;;;5016561;28;19953;-79
2021/10/30 05:23:39;;;;;;;;;;;9.90;99.90;;;;;;5021901;28;19924;-79
2021/10/30 05:26:05;;;;;;;;;;;9.90;99.90;;;;;;5027932;28;19929;-78
2021/10/30 05:28:31;;;;;;;;;;;9.90;99.90;;;;;;5028455;28;19922;-78
2021/10/30 05:30:56;;;;;;;;;;;9.90;99.90;;;;;;5032257;28;19916;-78
2021/10/30 05:33:22;;;;;;;;;;;10.00;99.90;;;;;;5033177;28;19971;-78
2021/10/30 05:35:47;;;;;;;;;;;10.00;99.90;;;;;;5027742;28;19921;-78
2021/10/30 05:38:14;;;;;;;;;;;10.00;99.90;;;;;;5032291;28;19982;-78
2021/10/30 05:40:39;;;;;;;;;;;10.00;99.90;;;;;;5024276;28;19917;-78
2021/10/30 05:43:06;;;;;;;;;;;10.00;99.90;;;;;;5043639;28;19916;-78
2021/10/30 05:45:31;;;;;;;;;;;10.10;99.90;;;;;;5026241;28;20345;-78
2021/10/30 05:47:57;;;;;;;;;;;10.10;99.90;;;;;;5028403;28;20019;-78
2021/10/30 05:50:22;;;;;;;;;;;10.10;99.90;;;;;;5030038;28;20462;-78
2021/10/30 05:52:48;;;;;;;;;;;10.10;99.90;;;;;;5025734;28;19917;-79
2021/10/30 05:55:13;;;;;;;;;;;10.10;99.90;;;;;;5033078;28;19921;-77
2021/10/30 05:57:39;;;;;;;;;;;10.10;99.90;;;;;;5017825;28;20258;-78
2021/10/30 06:00:04;;;;;;;;;;;10.10;99.90;;;;;;5031792;28;19921;-77
2021/10/30 06:02:30;;;;;;;;;;;10.10;99.90;;;;;;5037060;28;19917;-79
2021/10/30 06:04:55;;;;;;;;;;;10.10;99.90;;;;;;5053205;28;19960;-77
2021/10/30 06:07:21;;;;;;;;;;;10.20;99.90;;;;;;5035079;28;20255;-76
2021/10/30 06:09:46;;;;;;;;;;;10.20;99.90;;;;;;5029217;28;20389;-76
2021/10/30 06:12:12;;;;;;;;;;;10.20;99.90;;;;;;5024007;28;20412;-77
2021/10/30 06:14:37;;;;;;;;;;;10.20;99.90;;;;;;5020901;28;19916;-77
2021/10/30 06:17:03;;;;;;;;;;;10.20;99.90;;;;;;5029603;28;20314;-77
2021/10/30 06:19:28;;;;;;;;;;;10.20;99.90;;;;;;5032444;28;19917;-77
2021/10/30 06:21:54;;;;;;;;;;;10.20;99.90;;;;;;5027236;28;20016;-78
2021/10/30 06:24:19;;;;;;;;;;;10.20;99.90;;;;;;5035458;28;19924;-77
2021/10/30 06:26:45;;;;;;;;;;;10.20;99.90;;;;;;5035815;28;20065;-78
2021/10/30 06:29:10;;;;;;;;;;;10.30;99.90;;;;;;5054380;28;19916;-79
2021/10/30 06:31:36;;;;;;;;;;;10.30;99.90;;;;;;5031651;28;19920;-78
2021/10/30 06:34:01;;;;;;;;;;;10.30;99.90;;;;;;5031829;28;20011;-78
2021/10/30 06:36:26;;;;;;;;;;;10.30;99.90;;;;;;5031553;28;19998;-78
2021/10/30 06:38:52;;;;;;;;;;;10.30;99.90;;;;;;5017550;28;19921;-78
2021/10/30 06:41:17;;;;;;;;;;;10.30;99.90;;;;;;5025634;28;19971;-79
2021/10/30 06:43:43;;;;;;;;;;;10.30;99.90;;;;;;5032920;28;19951;-79
2021/10/30 06:46:09;;;;;;;;;;;10.30;99.90;;;;;;5032334;28;19928;-79
2021/10/30 06:48:35;;;;;;;;;;;10.30;99.90;;;;;;5034534;28;19967;-79
2021/10/30 06:51:00;;;;;;;;;;;10.30;99.90;;;;;;5029493;28;19930;-78
2021/10/30 06:53:26;;;;;;;;;;;10.30;99.90;;;;;;5041956;22;19921;-66
2021/10/30 06:55:54;;;;;;;;;;;10.40;99.90;;;;;;5046992;28;19947;-66
2021/10/30 06:58:19;;;;;;;;;;;10.40;99.90;;;;;;5030995;28;19916;-66
2021/10/30 07:00:45;;;;;;;;;;;10.40;99.90;;;;;;5047143;28;20314;-67
2021/10/30 07:03:10;;;;;;;;;;;10.40;99.90;;;;;;5022714;28;19920;-66
2021/10/30 07:05:39;;;;;;;;;;;10.50;99.90;;;;;;5049354;28;19928;-66
2021/10/30 07:08:04;;;;;;;;;;;10.50;99.90;;;;;;5033447;28;19925;-66
2021/10/30 07:10:30;;;;;;;;;;;10.50;99.90;;;;;;5049069;28;19917;-66
2021/10/30 07:12:55;;;;;;;;;;;10.60;99.90;;;;;;5031167;28;19920;-66
2021/10/30 07:15:21;;;;;;;;;;;10.60;99.90;;;;;;5035547;28;20397;-66
2021/10/30 07:17:47;;;;;;;;;;;10.60;99.90;;;;;;5007418;28;19924;-66
2021/10/30 07:20:12;;;;;;;;;;;10.60;99.90;;;;;;5025722;28;20265;-66
2021/10/30 07:22:41;;;;;;;;;;;10.60;99.90;;;;;;5038666;28;19920;-66
2021/10/30 07:25:07;;;;;;;;;;;10.60;99.90;;;;;;5048206;28;19978;-66
2021/10/30 07:27:32;;;;;;;;;;;10.70;99.90;;;;;;5049341;28;19925;-67
2021/10/30 07:29:58;;;;;;;;;;;10.70;99.90;;;;;;5033654;28;20469;-66
2021/10/30 07:32:23;;;;;;;;;;;10.70;99.90;;;;;;5029742;28;19916;-66
2021/10/30 07:34:48;;;;;;;;;;;10.80;99.90;;;;;;5049975;28;19923;-66
2021/10/30 07:37:14;;;;;;;;;;;10.70;99.90;;;;;;5034205;28;19924;-66
2021/10/30 07:39:39;;;;;;;;;;;10.70;99.90;;;;;;5033905;28;20007;-67
2021/10/30 07:42:06;;;;;;;;;;;10.80;99.90;;;;;;5034533;28;20354;-67
2021/10/30 07:44:32;;;;;;;;;;;10.80;99.90;;;;;;5032079;28;19921;-67
2021/10/30 07:46:58;;;;;;;;;;;10.80;99.90;;;;;;5025547;28;19921;-66
2021/10/30 07:49:23;;;;;;;;;;;10.80;99.90;;;;;;5033839;28;19923;-66
2021/10/30 07:51:49;;;;;;;;;;;10.80;99.90;;;;;;5038636;28;19930;-66
2021/10/30 07:54:15;;;;;;;;;;;10.80;99.90;;;;;;5049620;28;20098;-66
2021/10/30 07:56:40;;;;;;;;;;;10.80;99.90;;;;;;5048031;28;20366;-67
2021/10/30 07:59:06;;;;;;;;;;;10.80;99.90;;;;;;5048805;28;19956;-67
2021/10/30 08:01:31;;;;;;;;;;;10.80;99.90;;;;;;5030889;28;19923;-68
2021/10/30 08:03:57;;;;;;;;;;;10.90;99.90;;;;;;5030312;28;19928;-67
2021/10/30 08:06:22;;;;;;;;;;;10.80;99.90;;;;;;5033519;28;21777;-67
2021/10/30 08:08:48;;;;;;;;;;;10.80;99.90;;;;;;5046528;28;20574;-67
2021/10/30 08:11:13;;;;;;;;;;;10.80;99.90;;;;;;5031294;28;19921;-67
2021/10/30 08:13:39;;;;;;;;;;;10.90;99.90;;;;;;5034445;28;19920;-67
2021/10/30 08:16:04;;;;;;;;;;;10.80;99.90;;;;;;5032395;28;20290;-67
2021/10/30 08:18:30;;;;;;;;;;;10.80;99.90;;;;;;5040517;28;20354;-67
2021/10/30 08:20:55;;;;;;;;;;;10.90;99.90;;;;;;5052400;28;19916;-67
2021/10/30 08:23:21;;;;;;;;;;;10.90;99.90;;;;;;5032838;28;21771;-67
2021/10/30 08:25:46;;;;;;;;;;;10.90;99.90;;;;;;5029392;28;19932;-67
2021/10/30 08:28:12;;;;;;;;;;;10.90;99.90;;;;;;5035873;28;20408;-66
2021/10/30 08:30:37;;;;;;;;;;;10.90;99.90;;;;;;5039300;28;19927;-66
2021/10/30 08:33:03;;;;;;;;;;;10.90;99.90;;;;;;5041523;28;19959;-66
2021/10/30 08:35:28;;;;;;;;;;;10.90;99.90;;;;;;5034415;28;19967;-66
2021/10/30 08:37:53;;;;;;;;;;;10.90;99.90;;;;;;5034356;28;20617;-66
2021/10/30 08:40:19;;;;;;;;;;;11.00;99.90;;;;;;5039814;28;19917;-66
2021/10/30 08:42:47;;;;;;;;;;;11.00;99.90;;;;;;5032336;28;19921;-66
2021/10/30 08:45:12;;;;;;;;;;;11.00;99.90;;;;;;5032199;28;20558;-66
2021/10/30 08:47:38;;;;;;;;;;;11.00;99.90;;;;;;5032265;28;19916;-66
2021/10/30 08:50:04;;;;;;;;;;;11.10;99.90;;;;;;5032584;28;19924;-66
2021/10/30 08:52:30;;;;;;;;;;;11.00;99.90;;;;;;5049906;28;19921;-66
2021/10/30 08:54:55;;;;;;;;;;;11.10;99.90;;;;;;5049651;28;20023;-66
2021/10/30 08:57:20;;;;;;;;;;;11.10;99.90;;;;;;5030273;28;19926;-66
2021/10/30 08:59:47;;;;;;;;;;;11.20;99.90;;;;;;5032816;28;20345;-66
2021/10/30 09:02:29;;;;;;;;;;;11.10;99.90;;;;;;5017985;28;19924;-65
2021/10/30 09:05:13;;;;;;;;;;;11.20;99.90;;;;;;5042212;28;20502;-65
2021/10/30 09:07:39;;;;;;;;;;;11.20;99.90;;;;;;5044586;28;19928;-65
2021/10/30 09:10:15;;;;;;;;;;;11.20;99.90;;;;;;5029462;28;19924;-65
2021/10/30 09:12:47;;;;;;;;;;;11.30;99.90;;;;;;5050968;28;19921;-65
2021/10/30 09:15:14;;;;;;;;;;;11.30;99.90;;;;;;5053973;28;19962;-65
2021/10/30 09:17:41;;;;;;;;;;;11.40;99.90;;;;;;5063758;28;19916;-65
2021/10/30 09:20:08;;;;;;;;;;;11.40;99.90;;;;;;5051287;28;19961;-65
2021/10/30 09:22:34;;;;;;;;;;;11.40;99.90;;;;;;5028086;28;20394;-65
2021/10/30 09:25:04;;;;;;;;;;;11.50;99.90;;;;;;5048855;28;20003;-65
2021/10/30 09:27:48;;;;;;;;;;;11.50;99.90;;;;;;5050619;28;19924;-65
2021/10/30 09:30:18;;;;;;;;;;;11.50;99.90;;;;;;5049038;28;20024;-65
2021/10/30 09:32:53;;;;;;;;;;;11.60;99.90;;;;;;5030628;28;20031;-65
2021/10/30 09:35:23;;;;;;;;;;;11.70;99.90;;;;;;5032547;28;19955;-65
2021/10/30 09:37:49;;;;;;;;;;;11.70;99.90;;;;;;5033668;28;19916;-65
2021/10/30 09:40:16;;;;;;;;;;;11.70;99.90;;;;;;5044342;28;19921;-65
2021/10/30 09:42:41;;;;;;;;;;;11.80;99.90;;;;;;5049294;28;19917;-65
2021/10/30 09:45:08;;;;;;;;;;;11.90;99.90;;;;;;5033080;28;20302;-65
2021/10/30 09:47:34;;;;;;;;;;;11.90;99.90;;;;;;5049597;28;19928;-65
2021/10/30 09:49:59;;;;;;;;;;;11.90;99.90;;;;;;5049180;28;19917;-65
2021/10/30 09:52:27;;;;;;;;;;;12.00;99.90;;;;;;5047332;28;19927;-65
2021/10/30 09:54:53;;;;;;;;;;;12.00;99.90;;;;;;5053699;28;19923;-65
2021/10/30 09:57:27;;;;;;;;;;;12.10;99.90;;;;;;5029066;28;19917;-65
2021/10/30 09:59:53;;;;;;;;;;;12.20;99.90;;;;;;5018580;28;19945;-65
2021/10/30 10:02:21;;;;;;;;;;;12.20;99.90;;;;;;5035106;28;19930;-65
2021/10/30 10:04:47;;;;;;;;;;;12.30;99.90;;;;;;5042641;28;19940;-65
2021/10/30 10:07:13;;;;;;;;;;;12.30;99.90;;;;;;5047081;28;20378;-65
2021/10/30 10:09:38;;;;;;;;;;;12.40;99.90;;;;;;5048125;28;20034;-65
2021/10/30 10:12:04;;;;;;;;;;;12.50;99.90;;;;;;5053274;28;19946;-65
2021/10/30 10:14:30;;;;;;;;;;;12.60;99.90;;;;;;5049973;28;19987;-65
2021/10/30 10:16:56;;;;;;;;;;;12.60;99.90;;;;;;5054225;28;19924;-65
2021/10/30 10:19:22;;;;;;;;;;;12.60;99.90;;;;;;5054719;28;20309;-65
2021/10/30 10:21:48;;;;;;;;;;;12.60;99.90;;;;;;5039113;28;19960;-65
2021/10/30 10:24:16;;;;;;;;;;;12.60;99.90;;;;;;5053020;28;19920;-65
2021/10/30 10:26:49;;;;;;;;;;;12.60;99.90;;;;;;5047276;28;19932;-65
2021/10/30 10:29:27;;;;;;;;;;;12.70;99.90;;;;;;5042961;28;20011;-65
2021/10/30 10:31:52;;;;;;;;;;;12.60;99.90;;;;;;5044854;28;19924;-65
2021/10/30 10:34:44;;;;;;;;;;;12.70;99.90;;;;;;5045478;28;19923;-65
2021/10/30 10:37:13;;;;;;;;;;;12.60;99.90;;;;;;5049853;28;19924;-65
2021/10/30 10:39:39;;;;;;;;;;;12.60;99.90;;;;;;5052111;28;19923;-65
2021/10/30 10:42:06;;;;;;;;;;;12.70;99.90;;;;;;5034588;28;19986;-65
2021/10/30 10:44:36;;;;;;;;;;;12.70;99.90;;;;;;5049309;28;19959;-65
2021/10/30 10:47:01;;;;;;;;;;;12.70;99.90;;;;;;5047963;28;20043;-65
2021/10/30 10:52:13;;;;;;;;;;;12.80;99.90;;;;;;5041086;28;19929;-65
2021/10/30 10:54:54;;;;;;;;;;;12.80;99.90;;;;;;5049021;28;19995;-66
2021/10/30 10:57:24;;;;;;;;;;;12.80;99.90;;;;;;5026831;28;19923;-65
2021/10/30 11:00:08;;;;;;;;;;;12.80;99.90;;;;;;5047910;28;20365;-65
2021/10/30 11:02:38;;;;;;;;;;;12.70;99.90;;;;;;5046130;28;19956;-65
2021/10/30 11:05:09;;;;;;;;;;;12.70;99.90;;;;;;5048847;28;19920;-66
2021/10/30 11:07:36;;;;;;;;;;;12.60;99.90;;;;;;5046399;28;19927;-65
2021/10/30 11:10:02;;;;;;;;;;;12.60;99.90;;;;;;5047253;28;20011;-66
2021/10/30 11:12:28;;;;;;;;;;;12.60;99.90;;;;;;5051173;28;19967;-65
2021/10/30 11:14:56;;;;;;;;;;;12.60;99.90;;;;;;5051705;28;20351;-65
2021/10/30 11:17:24;;;;;;;;;;;12.60;99.90;;;;;;5051494;28;20449;-65
2021/10/30 11:19:51;;;;;;;;;;;12.60;99.90;;;;;;5050999;28;20011;-65
2021/10/30 11:22:20;;;;;;;;;;;12.60;99.90;;;;;;5051387;28;19961;-66
2021/10/30 11:24:47;;;;;;;;;;;12.60;99.90;;;;;;5023435;28;19952;-65
2021/10/30 11:27:12;;;;;;;;;;;12.60;99.90;;;;;;5045041;28;20580;-65
2021/10/30 11:29:46;;;;;;;;;;;12.60;99.90;;;;;;5049689;28;19956;-65
2021/10/30 11:32:12;;;;;;;;;;;12.60;99.90;;;;;;5048470;28;19923;-65
2021/10/30 11:34:37;;;;;;;;;;;12.70;99.90;;;;;;5050244;28;19917;-65
2021/10/30 11:37:03;;;;;;;;;;;12.70;99.90;;;;;;5032101;28;20343;-65
2021/10/30 11:39:30;;;;;;;;;;;12.70;99.90;;;;;;5034650;28;19952;-65
2021/10/30 11:41:55;;;;;;;;;;;12.80;99.90;;;;;;5049227;28;19963;-65
2021/10/30 11:44:21;;;;;;;;;;;12.80;99.90;;;;;;5049095;28;19956;-65
2021/10/30 11:46:48;;;;;;;;;;;12.80;99.90;;;;;;5049265;28;19921;-65
2021/10/30 11:49:22;;;;;;;;;;;12.90;99.90;;;;;;5033720;28;19917;-65
2021/10/30 11:51:48;;;;;;;;;;;12.90;99.90;;;;;;5049091;28;19926;-65
2021/10/30 11:54:14;;;;;;;;;;;12.90;99.90;;;;;;5050733;28;20004;-65
2021/10/30 11:56:40;;;;;;;;;;;12.90;99.90;;;;;;5047321;28;20313;-65
2021/10/30 11:59:06;;;;;;;;;;;12.90;99.90;;;;;;5048301;28;20359;-65
2021/10/30 12:01:34;;;;;;;;;;;12.90;99.90;;;;;;5048675;28;19931;-66
2021/10/30 12:04:12;;;;;;;;;;;12.90;99.90;;;;;;5039379;28;19924;-65
2021/10/30 12:06:39;;;;;;;;;;;12.90;99.90;;;;;;5048019;28;19921;-65
2021/10/30 12:09:20;;;;;;;;;;;12.90;99.90;;;;;;5044709;28;20387;-66
2021/10/30 12:11:46;;;;;;;;;;;12.90;99.90;;;;;;5053345;28;19916;-66
2021/10/30 12:14:18;;;;;;;;;;;12.90;99.90;;;;;;5020455;28;19917;-65
2021/10/30 12:16:44;;;;;;;;;;;12.90;99.90;;;;;;5052686;28;19920;-65
2021/10/30 12:19:09;;;;;;;;;;;13.00;99.90;;;;;;5032237;28;19994;-65
2021/10/30 12:21:35;;;;;;;;;;;13.00;99.90;;;;;;5052094;28;19924;-66
2021/10/30 12:24:04;;;;;;;;;;;13.10;99.90;;;;;;5036925;28;19917;-65
2021/10/30 12:26:31;;;;;;;;;;;13.10;99.90;;;;;;5052038;28;19928;-65
2021/10/30 12:29:15;;;;;;;;;;;13.20;99.90;;;;;;5052148;28;19920;-65
2021/10/30 12:31:41;;;;;;;;;;;13.10;99.90;;;;;;5052095;28;19959;-66
2021/10/30 12:34:13;;;;;;;;;;;13.20;99.90;;;;;;5034467;28;19976;-66
2021/10/30 12:36:39;;;;;;;;;;;13.20;99.90;;;;;;5027033;28;19921;-66
2021/10/30 12:39:04;;;;;;;;;;;13.20;99.90;;;;;;5050965;28;19927;-66
2021/10/30 12:41:31;;;;;;;;;;;13.20;99.90;;;;;;5033418;28;19963;-66
2021/10/30 12:44:02;;;;;;;;;;;13.20;99.90;;;;;;5051861;28;19931;-65
2021/10/30 12:46:47;;;;;;;;;;;13.20;99.90;;;;;;5041125;28;19928;-66
2021/10/30 12:49:12;;;;;;;;;;;13.20;99.90;;;;;;5034823;28;19917;-66
2021/10/30 12:51:38;;;;;;;;;;;13.20;99.90;;;;;;5051254;28;20290;-66
2021/10/30 12:54:06;;;;;;;;;;;13.20;99.90;;;;;;5045027;28;19943;-66
2021/10/30 12:56:40;;;;;;;;;;;13.20;99.90;;;;;;5029353;28;19920;-66
2021/10/30 12:59:09;;;;;;;;;;;13.10;99.90;;;;;;5048174;28;20396;-66
2021/10/30 13:01:34;;;;;;;;;;;13.20;99.90;;;;;;5035122;28;20358;-66
2021/10/30 13:04:01;;;;;;;;;;;13.10;99.90;;;;;;5051117;28;19932;-66
2021/10/30 13:06:28;;;;;;;;;;;13.20;99.90;;;;;;5051207;28;19921;-66
2021/10/30 13:08:54;;;;;;;;;;;13.20;99.90;;;;;;5047764;28;19920;-65
2021/10/30 13:11:20;;;;;;;;;;;13.10;99.90;;;;;;5045023;28;19921;-65
2021/10/30 13:13:46;;;;;;;;;;;13.20;99.90;;;;;;5030353;28;19971;-65
2021/10/30 13:16:11;;;;;;;;;;;13.20;99.90;;;;;;5031573;28;19967;-66
2021/10/30 13:18:37;;;;;;;;;;;13.20;99.90;;;;;;5051158;28;19928;-66
2021/10/30 13:21:02;;;;;;;;;;;13.10;99.90;;;;;;5029892;28;19921;-66
2021/10/30 13:23:28;;;;;;;;;;;13.20;99.90;;;;;;5050810;28;20258;-66
2021/10/30 13:25:54;;;;;;;;;;;13.20;99.90;;;;;;5032737;28;19947;-66
2021/10/30 13:28:19;;;;;;;;;;;13.30;99.90;;;;;;5047684;28;19924;-66
2021/10/30 13:30:45;;;;;;;;;;;13.30;99.90;;;;;;5033100;28;20366;-66
2021/10/30 13:33:11;;;;;;;;;;;13.30;99.90;;;;;;5032761;28;19921;-66
2021/10/30 13:35:36;;;;;;;;;;;13.30;99.90;;;;;;5048656;28;19929;-66
2021/10/30 13:38:02;;;;;;;;;;;13.30;99.90;;;;;;5047211;28;19916;-66
2021/10/30 13:40:27;;;;;;;;;;;13.30;99.90;;;;;;5032869;28;19917;-66
2021/10/30 13:42:53;;;;;;;;;;;13.40;99.90;;;;;;5051157;28;19928;-66
2021/10/30 13:45:19;;;;;;;;;;;13.40;99.90;;;;;;5043481;28;19921;-66
2021/10/30 13:47:44;;;;;;;;;;;13.40;99.90;;;;;;5029841;28;19928;-66
2021/10/30 13:50:10;;;;;;;;;;;13.50;99.90;;;;;;5050619;28;20044;-66
2021/10/30 13:52:35;;;;;;;;;;;13.60;99.90;;;;;;5031755;28;19932;-66
2021/10/30 13:55:01;;;;;;;;;;;13.60;99.90;;;;;;5046317;28;20342;-66
2021/10/30 13:57:27;;;;;;;;;;;13.70;99.90;;;;;;5050929;28;19920;-66
2021/10/30 13:59:52;;;;;;;;;;;13.70;99.90;;;;;;5050832;28;19963;-66
2021/10/30 14:02:18;;;;;;;;;;;13.70;99.90;;;;;;5034968;28;19921;-66
2021/10/30 14:04:43;;;;;;;;;;;13.80;99.90;;;;;;5049901;28;19923;-66
2021/10/30 14:07:09;;;;;;;;;;;13.70;99.90;;;;;;5048129;28;19920;-66
2021/10/30 14:09:35;;;;;;;;;;;13.80;99.90;;;;;;5046490;28;20341;-65
2021/10/30 14:12:00;;;;;;;;;;;13.80;99.90;;;;;;5025989;28;19925;-66
2021/10/30 14:14:26;;;;;;;;;;;13.80;99.90;;;;;;5028658;28;20390;-65
2021/10/30 14:16:52;;;;;;;;;;;13.90;99.90;;;;;;5048374;28;19917;-65
2021/10/30 14:19:17;;;;;;;;;;;13.80;99.90;;;;;;5031731;28;20440;-67